Search for airport 
image banner adimage banner adimage banner ad
image banner ad

NV27 - Circle L Ranch

Located in Dyer, United States

ICAO - NV27, IATA -

Data provided by Airmate  

General information

Coordinates: N37°42'60" W118°5'3"
Elevation is 4835 feet MSL.
Magnetic variation is 15° East
View others Airports in Nevada

Operational data

Special qualification required
Current time UTC:
Current local time:
Weather at : KBIH - Bishop ( 45 km )
METAR: KBIH 092256Z AUTO 14005KT 10SM CLR 27/M09 A2983 RMK AO2 SLP061 T02671089
TAF: KBIH 091725Z 0918/1018 34009KT P6SM SCT250 FM100100 34014G23KT P6SM FEW120 FEW200 FM100700 34010KT P6SM SKC FM101500 35014G23KT P6SM SKC
View NOTAMs / SUP AIP / TFR affecting this airport [VIEW]
Communications frequencies: [VIEW]

Runways:

RWY identifierQFULength (ft)Width (ft)SurfaceLDA (ft)
03440060ASPH
21440060ASPH
13440060ASPH
31440060ASPH

Airport contact information

Address: Dyer United States

Satellite view of NV27